Hauptseite
METAR-TAF:

METAR-TAF

Flughäfen :

Flughafen Köln/Bonn

Köln, Deutschland

Breite: 50-52N, Länge: 007-10E, Höhe: 91 m

Beobachtung

Neuester Wetterbericht von vor 23 Minuten, um 02:50 UTC
Wind 8 kt aus Süd
Temperatur 11°C
Luftfeuchtigkeit 62%
Luftdruck 1004 hPa
Sichtweite 10 km oder mehr
keine Wolken unter 1500 m und keine Kumulonimbus oder Gewitterwolken

METAR: EDDK 070250Z 17008KT CAVOK 11/04 Q1004 NOSIG

Zeit: 05:13 (03:13 UTC)

Prognose

Neuester Wetterbericht von vor 4 Stunden und 13 Minuten, um 23:00 UTC
Gültige Prognose vom 07 um 00 UTC bis 08 um 06 UTC
Wind 6 kt aus Süd
Sichtweite 10 km oder mehr
keine Wolken unter 1500 m und keine Kumulonimbus oder Gewitterwolken
Übergehend zu
vom 07 um 06 UTC bis 07 um 09 UTC
Wind 9 kt aus West
Übergehend zu
vom 07 um 17 UTC bis 07 um 20 UTC
Wind 3 kt aus Südost

TAF: EDDK 062300Z 0700/0806 18006KT CAVOK BECMG 0706/0709 26009KT BECMG 0717/0720 13003KT

Wetterbeobachtungen und Prognosen von mehr als 4000 Flughäfen (METAR und TAF Bericht).

Die verfügbaren Stationen werden durch gelbe und rote Markierungen auf der Karte dargestellt.

Führen Sie die Maus auf sie, um den Namen der Station zu sehen.

Darauf klicken, um die Beobachtung von Wetterbeobachtungen und Prognosen zu sehen.

Um die Karte zu ändern : klicken Sie auf den grünen Tasten mit einem schwarzen Kreuz Zum Vergrößern, auf den grünen Button mit einem Gedankenstrich zu verkleinern, oder auf die grünen Pfeile für benachbarte Karten.


METAR-TAF: